Serra dos Orgaos Teresopo, Brazil
Current Conditions -  °F | °C
As of 9:00 AM on Friday 19 Dec 2014 (Local Time) from SBGL Reporting Station
Broken Clouds Broken Clouds  
Wind Chill: 81°   Ceiling: 10000
Heat Index: 82°   Visibility: 6mi
Dew Point: 63°   Wind: 5mph
Humidity: 54%   Direction: 240°WSW
Pressure: 29.83"   Gusts: NA
Location:  22.41°S, 42.97°W
Report Text: SBGL 191100Z 24004KT 9999 FEW025 BKN100 27/17 Q1010
Loading
Personal Weather Stations






























Interactive Weather Map New forecast layout! Learn more

10-Day Weather Forecast

Advertisements
Track Severe Weather on mobile